Home > Products > Valid Products > TAF

000
FTUS45 KRIW 211100
TAFRKS
TAF
KRKS 211121Z 2112/2212 25015G25KT 2SM -SN BLSN SCT012 OVC025
     FM211700 25030G38KT 5SM -SN BLSN SCT015 OVC030
     FM220300 28024G32KT 2SM -SHSN SCT008 OVC014
     FM220800 28020KT P6SM VCSH SCT018 BKN040=



000
FTUS45 KRIW 211100
TAFCPR
TAF
KCPR 211121Z 2112/2212 22018G28KT P6SM FEW120 BKN200
     FM211500 23028G36KT P6SM SCT040 BKN090
     FM220000 27014G24KT P6SM VCSH SCT040 BKN070
     FM220800 27013G21KT P6SM SCT070=



000
FTUS45 KRIW 211100
TAFWRL
TAF
KWRL 211121Z 2112/2212 VRB04KT P6SM VCFG SCT100 BKN200
     FM211700 23007KT P6SM VCSH BKN070
     FM212300 33017G25KT P6SM VCSH BKN060
     FM220700 31008KT P6SM BKN080=



000
FTUS45 KRIW 211100
TAFRIW
TAF
KRIW 211121Z 2112/2212 VRB05KT P6SM VCFG SCT100 BKN200
     FM211700 24007KT P6SM BKN100 WS020/27035KT
     FM220100 30018G28KT P6SM VCSH BKN070
     FM220800 30028G38KT P6SM SCT070=



000
FTUS45 KRIW 211100
TAFLND
TAF
KLND 211121Z 2112/2212 26010KT P6SM SCT070 BKN100 WS020/26035KT
     FM220100 28012KT P6SM VCSH BKN070
     FM220800 29014G24KT P6SM SCT070=



000
FTUS45 KRIW 211100
TAFCOD
TAF
KCOD 211121Z 2112/2212 24017G25KT P6SM SCT050 BKN090 WS018/26043KT
     FM211800 27014G20KT P6SM BKN050 WS018/27038KT
     FM220000 28012G18KT P6SM SCT060
      AMD LTD TO CLD VIS AND WIND=



000
FTUS45 KRIW 211100
TAFBPI
TAF
KBPI 211121Z 2112/2212 VRB06KT 2SM -SN SCT015 OVC025
     FM211700 27010KT 5SM -SN SCT020 OVC035
     FM220100 32014G22KT 2SM -SHSN OVC015
     FM220700 33012KT P6SM VCSH SCT015 BKN040=



000
FTUS45 KRIW 211100
TAFJAC
TAF
KJAC 211121Z 2112/2212 19014KT 2SM -SN SCT007 OVC015
      TEMPO 2112/2116 1SM -SN SCT003 OVC008
     FM211700 21018G26KT 3SM -SN BLSN SCT009 OVC018
     FM220100 24015G23KT 2SM -SHSN BKN018
     FM220700 19009KT 5SM -SHSN SCT018 BKN030
      AMD LTD TO CLD VIS AND WIND=



000
FTUS45 KRIW 210500
TAFRIW
TAF
KRIW 210538Z 2106/2206 VRB05KT P6SM VCFG SCT100 BKN200
     FM211700 24007KT P6SM BKN100 WS020/27035KT
     FM220100 30018G28KT P6SM VCSH BKN070=



000
FTUS45 KRIW 210500
TAFWRL
TAF
KWRL 210538Z 2106/2206 VRB04KT P6SM VCFG SCT100 BKN200
     FM211700 23007KT P6SM VCSH BKN070
     FM212300 33017G25KT P6SM VCSH BKN060=



000
FTUS45 KRIW 210500
TAFRKS
TAF
KRKS 210538Z 2106/2206 25015G23KT P6SM VCSH SCT015 BKN040
     FM210700 25020G28KT 3SM -SN BLSN SCT012 OVC025
     FM211700 25030G38KT 5SM -SN BLSN SCT015 OVC030
     FM220300 28024G32KT 2SM -SHSN SCT008 OVC014=



000
FTUS45 KRIW 210500
TAFLND
TAF
KLND 210538Z 2106/2206 26008KT P6SM VCFG SCT100 BKN200
     FM211200 26011KT P6SM SCT070 BKN100 WS020/26035KT
     FM220100 28012KT P6SM VCSH BKN070=



000
FTUS45 KRIW 210500
TAFCOD
TAF
KCOD 210538Z 2106/2206 21011KT P6SM SCT050 BKN090 WS018/25035KT
     FM211200 24017G25KT P6SM SCT050 BKN090 WS018/26043KT
     FM211800 27014G20KT P6SM BKN050 WS018/27038KT
     FM220000 28012G18KT P6SM SCT060
      AMD LTD TO CLD VIS AND WIND=



000
FTUS45 KRIW 210500
TAFJAC
TAF
KJAC 210538Z 2106/2206 19012KT 2SM -SN SCT007 OVC015
     FM211000 19014KT 1SM -SN SCT003 OVC008
     FM211700 21018G26KT 3SM -SN BLSN SCT009 OVC018
     FM220100 24015G23KT 2SM -SHSN BKN018
      AMD LTD TO CLD VIS AND WIND=



000
FTUS45 KRIW 210500
TAFBPI
TAF
KBPI 210538Z 2106/2206 VRB05KT P6SM VCSH SCT020 OVC035
     FM210700 VRB06KT 3SM -SN SCT015 OVC025
     FM211700 27010KT 5SM -SN SCT020 OVC035
     FM220100 32014G22KT 2SM -SHSN OVC015=



000
FTUS45 KRIW 210500
TAFCPR
TAF
KCPR 210538Z 2106/2206 22014G20KT P6SM FEW120 SCT200
     FM211100 23020G30KT P6SM BKN100
     FM211500 23028G36KT P6SM SCT040 BKN090
     FM220000 27014G24KT P6SM VCSH SCT040 BKN070=



000
FTUS45 KRIW 202300
TAFRKS
TAF
KRKS 202327Z 2100/2124 25013G20KT P6SM VCSH SCT015 BKN040
     FM210700 25022G30KT 3SM -SN BLSN SCT012 OVC025
     FM211700 25030G38KT 5SM -SN BLSN SCT015 OVC030=



000
FTUS45 KRIW 202300
TAFWRL
TAF
KWRL 202327Z 2100/2124 15007KT P6SM SCT100 BKN150=



000
FTUS45 KRIW 202300
TAFRIW
TAF
KRIW 202327Z 2100/2124 21006KT P6SM SCT100 BKN200
     FM210900 24006KT P6SM BKN100 WS020/26035KT=



000
FTUS45 KRIW 202300
TAFCOD
TAF
KCOD 202327Z 2100/2124 21009KT P6SM SCT060 BKN090
     FM210300 23012G18KT P6SM SCT050 BKN090 WS020/26035KT
     FM210600 25018G28KT P6SM SCT050 BKN100
      AMD LTD TO CLD VIS AND WIND=



000
FTUS45 KRIW 202300
TAFJAC
TAF
KJAC 202327Z 2100/2124 18013KT 6SM -SN BR BKN030 OVC045
     FM210200 18013KT 4SM -SN SCT012 OVC025
     FM210700 19013KT 2SM -SN SCT007 OVC015
     FM211700 18018G26KT 3SM -SN BLSN SCT009 OVC018
      AMD LTD TO CLD VIS AND WIND=



000
FTUS45 KRIW 202300
TAFLND
TAF
KLND 202327Z 2100/2124 28007KT P6SM SCT100 BKN200
     FM210600 28011KT P6SM SCT060 BKN100 WS020/25038KT=



000
FTUS45 KRIW 202300
TAFCPR
TAF
KCPR 202327Z 2100/2124 22014G20KT P6SM SCT120 BKN200
     FM211000 23026G34KT P6SM BKN100
     FM211500 23030G37KT P6SM SCT040 BKN090=



000
FTUS45 KRIW 202300
TAFBPI
TAF
KBPI 202327Z 2100/2124 26006KT P6SM VCSH SCT030 BKN060
     FM210500 VRB06KT 3SM -SN BR SCT015 OVC025
     FM211600 VRB06KT 5SM -SN BR SCT020 OVC035=



000
FTUS45 KRIW 202000 AAA
TAFRKS
TAF AMD
KRKS 202047Z 2021/2118 25013G20KT 3SM -SN SCT010 OVC020
     FM210700 25022G30KT P6SM VCSH SCT012 OVC030
     FM211500 25030G38KT P6SM VCSH SCT010 OVC030=



000
FTUS45 KRIW 201700
TAFWRL
TAF
KWRL 201720Z 2018/2118 16005KT P6SM SCT100 BKN150=



000
FTUS45 KRIW 201700
TAFJAC
TAF
KJAC 201720Z 2018/2118 19010KT P6SM VCSH SCT020 BKN040
     FM202100 18013KT 4SM -SN OVC025
     FM210700 19013KT 2SM -SN SCT007 OVC015
      AMD LTD TO CLD VIS AND WIND=



000
FTUS45 KRIW 201700
TAFRIW
TAF
KRIW 201720Z 2018/2118 VRB05KT P6SM BKN120
     FM210000 24006KT P6SM SCT100 BKN150
     FM210600 24006KT P6SM BKN100 WS020/26035KT=



000
FTUS45 KRIW 201700
TAFRKS
TAF
KRKS 201720Z 2018/2118 23011KT P6SM VCSH BKN040
     FM201900 25013G20KT P6SM VCSH BKN050
     FM210800 25022G30KT P6SM VCSH SCT012 OVC030
     FM211500 25030G38KT P6SM VCSH SCT010 OVC030=



000
FTUS45 KRIW 201700
TAFLND
TAF
KLND 201720Z 2018/2118 VRB04KT P6SM BKN120
     FM210000 28007KT P6SM SCT100 BKN200 WS020/25035KT
     FM210600 28011KT P6SM BKN100 WS020/25038KT=



000
FTUS45 KRIW 201700
TAFBPI
TAF
KBPI 201720Z 2018/2118 VRB04KT P6SM VCSH SCT045 BKN060
     FM202300 VRB04KT 5SM -SN SCT020 OVC040
     FM210700 VRB06KT 4SM -SN BR SCT015 OVC030=



000
FTUS45 KRIW 201700
TAFCOD
TAF
KCOD 201720Z 2018/2118 23009KT P6SM BKN100
     FM202000 23012G18KT P6SM SCT050 BKN100 WS020/26035KT
     FM210600 25018G28KT P6SM BKN100
      AMD LTD TO CLD VIS AND WIND=



000
FTUS45 KRIW 201700
TAFCPR
TAF
KCPR 201720Z 2018/2118 22016G26KT P6SM SCT110 BKN200
     FM210600 23026G34KT P6SM BKN100
     FM211500 23030G37KT P6SM SCT040 BKN090=



000
FTUS45 KRIW 201300 AAB
TAFJAC
TAF AMD
KJAC 201337Z 2014/2112 20007KT P6SM VCSH SCT018 OVC040
     FM201430 21008KT 4SM -SN SCT012 OVC020
     FM201700 19010KT P6SM VCSH SCT020 BKN040
     FM202100 18013KT 4SM -SN OVC025
     FM210700 19013KT 2SM -SN OVC015
      AMD LTD TO CLD VIS AND WIND=



000
FTUS45 KRIW 201200 AAA
TAFJAC
TAF AMD
KJAC 201242Z 2013/2112 20007KT P6SM VCSH SCT018 OVC040
     FM202100 18013KT 4SM -SN OVC025
     FM210700 19013KT 2SM -SN OVC015
      AMD LTD TO CLD VIS AND WIND=



000
FTUS45 KRIW 201100
TAFCPR
TAF
KCPR 201120Z 2012/2112 22016G26KT P6SM SCT110 BKN200
     FM210600 23026G34KT P6SM BKN100=



000
FTUS45 KRIW 201100
TAFWRL
TAF
KWRL 201120Z 2012/2112 16005KT P6SM SCT100 BKN250=



000
FTUS45 KRIW 201100
TAFRIW
TAF
KRIW 201120Z 2012/2112 VRB05KT P6SM BKN120
     FM210000 24006KT P6SM SCT100 SCT200
     FM210600 24006KT P6SM BKN100=



000
FTUS45 KRIW 201100
TAFCOD
TAF
KCOD 201120Z 2012/2112 24015G25KT P6SM BKN100
     FM201400 23011KT P6SM BKN100
     FM201900 23012G18KT P6SM SCT050 BKN100
     FM210600 25018G28KT P6SM BKN100
      AMD LTD TO CLD VIS AND WIND=



000
FTUS45 KRIW 201100
TAFLND
TAF
KLND 201120Z 2012/2112 VRB04KT P6SM BKN120
     FM210000 28007KT P6SM SCT100 SCT200
     FM210600 28011KT P6SM BKN100=



000
FTUS45 KRIW 201100
TAFRKS
TAF
KRKS 201120Z 2012/2112 23011KT P6SM VCSH BKN040
     FM201900 25013G20KT P6SM BKN050
     FM210800 25020G30KT P6SM BKN040=



000
FTUS45 KRIW 201100
TAFJAC
TAF
KJAC 201120Z 2012/2112 20007KT 4SM -SN FEW008 BKN016
     FM201400 18006KT P6SM VCSH SCT025 BKN045
     FM202100 18013KT 4SM -SN OVC025
     FM210700 19013KT 2SM -SN OVC015
      AMD LTD TO CLD VIS AND WIND=



000
FTUS45 KRIW 201100
TAFBPI
TAF
KBPI 201120Z 2012/2112 VRB04KT P6SM VCSH SCT045 BKN060
     FM202300 VRB04KT P6SM VCSH OVC040
     FM210700 VRB06KT 5SM -SN OVC035=



000
FTUS45 KRIW 200900 AAB
TAFLND
TAF AMD
KLND 200942Z 2010/2106 24006KT 6SM BR SCT100 BKN250
     FM201300 VRB04KT 4SM BR SCT002 SCT100 BKN250
     FM201500 VRB04KT P6SM VCFG SCT002 BKN110
     FM201800 28007KT P6SM SCT100 SCT200=



000
FTUS45 KRIW 200800 AAA
TAFCOD
TAF AMD
KCOD 200858Z 2009/2106 24012G20KT P6SM SCT110 BKN200
     FM201200 VRB06KT P6SM BKN100
     FM201900 23012G18KT P6SM SCT050 BKN100
      AMD LTD TO CLD VIS AND WIND=



000
FTUS45 KRIW 200600 AAA
TAFLND
TAF AMD
KLND 200648Z 2007/2106 24006KT 5SM BR SCT100 BKN250
      TEMPO 2009/2012 2SM BR SCT002
     FM201300 VRB04KT 4SM BR SCT002 SCT100 BKN250
     FM201500 VRB04KT P6SM VCFG SCT002 BKN110
     FM201800 28007KT P6SM SCT100 SCT200=



000
FTUS45 KRIW 200600 AAA
TAFRIW
TAF AMD
KRIW 200640Z 2007/2106 VRB04KT P6SM SCT130 BKN250
     FM201000 VRB04KT P6SM VCFG FEW003 SCT130 BKN250
     FM201400 VRB04KT P6SM SCT130 BKN250
     FM201800 24006KT P6SM SCT100 SCT200=



000
FTUS45 KRIW 200500
TAFRKS
TAF
KRKS 200520Z 2006/2106 24007KT P6SM SCT045 OVC100
     FM201300 25013KT P6SM VCSH BKN040
     FM201900 26017G25KT P6SM SCT045 BKN090=



000
FTUS45 KRIW 200500
TAFRIW
TAF
KRIW 200520Z 2006/2106 VRB04KT P6SM VCFG SCT025
     FM200700 VRB03KT 1/4SM FZFG VV001
     FM201100 VRB03KT 1/2SM FG VV001
     FM201300 VRB04KT 4SM BR BKN001
     FM201500 21005KT P6SM VCFG SCT002 BKN110
     FM201800 24006KT P6SM SCT100 SCT200=



000
FTUS45 KRIW 200500
TAFWRL
TAF
KWRL 200520Z 2006/2106 VRB04KT P6SM SCT120 BKN200
     FM201000 VRB03KT P6SM VCFG BKN110
     FM201600 15005KT P6SM SCT100 SCT200=



000
FTUS45 KRIW 200500
TAFLND
TAF
KLND 200520Z 2006/2106 24006KT 5SM BR SCT025
      TEMPO 2007/2011 3/4SM BR VV001
     FM201300 VRB04KT 4SM BR BKN001
     FM201500 VRB04KT P6SM VCFG SCT002 BKN110
     FM201800 28007KT P6SM SCT100 SCT200=



000
FTUS45 KRIW 200500
TAFBPI
TAF
KBPI 200520Z 2006/2106 VRB04KT P6SM SCT050 OVC100
     FM202300 VRB04KT P6SM VCSH OVC040=



000
FTUS45 KRIW 200500
TAFCOD
TAF
KCOD 200520Z 2006/2106 24010KT P6SM SCT110 BKN200
     FM201200 VRB06KT P6SM BKN100
     FM201900 23012G18KT P6SM SCT050 BKN100
      AMD LTD TO CLD VIS AND WIND=



000
FTUS45 KRIW 200500
TAFJAC
TAF
KJAC 200520Z 2006/2106 22008KT 6SM -SN SCT018 OVC035
     FM200900 20007KT 4SM -SN BKN016
     FM201400 VRB06KT P6SM VCSH SCT025 BKN045
     FM202100 21013KT 4SM -SN OVC025
     FM210500 21013KT 2SM -SN OVC015
      AMD LTD TO CLD VIS AND WIND=



000
FTUS45 KRIW 200500
TAFCPR
TAF
KCPR 200520Z 2006/2106 21015G25KT P6SM FEW120 BKN200
     FM201500 22020G28KT P6SM SCT110 SCT200
     FM202300 23026G34KT P6SM BKN100=



000
FTUS45 KRIW 200300 AAB
TAFLND
TAF AMD
KLND 200359Z 2004/2024 24006KT P6SM VCFG SCT025
      TEMPO 2006/2010 3/4SM BR VV001
     FM201300 VRB04KT 4SM BR BKN001
     FM201500 VRB04KT P6SM VCFG SCT002 BKN110
     FM201800 28007KT P6SM SCT100 SCT200=



000
FTUS45 KRIW 200300 AAB
TAFLND
TAF AMD
KLND 200359Z 2004/2024 24006KT P6SM VCFG SCT025
      TEMPO 2006/2010 3/4SM BR VV001
     FM201300 VRB04KT 4SM BR BKN001
     FM201500 VRB04KT P6SM VCFG SCT002 BKN110
     FM201800 28007KT P6SM SCT100 SCT200=



000
FTUS45 KRIW 200300 AAB
TAFRIW
TAF AMD
KRIW 200354Z 2004/2024 VRB04KT P6SM VCFG SCT009
     FM200600 VRB04KT 1/4SM FZFG VV001
     FM201100 VRB03KT 1/2SM FG VV001
     FM201300 VRB04KT 4SM BR BKN001
     FM201500 21005KT P6SM VCFG SCT002 BKN110
     FM201800 24006KT P6SM SCT100 SCT200=



000
FTUS45 KRIW 200300 AAB
TAFRIW
TAF AMD
KRIW 200354Z 2004/2024 VRB04KT P6SM VCFG SCT009
     FM200600 VRB04KT 1/4SM FZFG VV001
     FM201100 VRB03KT 1/2SM FG VV001
     FM201300 VRB04KT 4SM BR BKN001
     FM201500 21005KT P6SM VCFG SCT002 BKN110
     FM201800 24006KT P6SM SCT100 SCT200=



000
FTUS45 KRIW 200300 AAA
TAFRIW
TAF AMD
KRIW 200300Z 2003/2024 VRB04KT P6SM VCFG SCT009
     FM200400 VRB06KT 3SM BR BKN009
     FM200500 VRB04KT 1/4SM FZFG VV001
     FM201100 VRB03KT 1/2SM FG VV001
     FM201300 VRB04KT 4SM BR BKN001
     FM201500 21005KT P6SM VCFG SCT002 BKN110
     FM201800 24006KT P6SM SCT100 SCT200=



000
FTUS45 KRIW 200200 AAA
TAFLND
TAF AMD
KLND 200259Z 2003/2024 24006KT 4SM BR SCT025
      TEMPO 2004/2008 1/2SM FG VV001
     FM201300 VRB04KT 4SM BR BKN001
     FM201500 VRB04KT P6SM VCFG SCT002 BKN110
     FM201800 28007KT P6SM SCT100 SCT200=



000
FTUS45 KRIW 192300
TAFLND
TAF
KLND 192320Z 2000/2024 25005KT P6SM FEW120 BKN200
     FM200200 VRB04KT P6SM VCFG FEW110 SCT200
     FM200300 24006KT 2SM BR BKN002
      TEMPO 2004/2008 1/2SM FG VV001
     FM201300 VRB04KT 4SM BR BKN001
     FM201500 VRB04KT P6SM VCFG SCT002 BKN110
     FM201800 28007KT P6SM SCT100 SCT200=



000
FTUS45 KRIW 192300
TAFWRL
TAF
KWRL 192320Z 2000/2024 VRB04KT P6SM SCT120 BKN200
     FM201000 VRB03KT P6SM VCFG BKN110
     FM201600 15005KT P6SM SCT100 SCT200=



000
FTUS45 KRIW 192300
TAFRKS
TAF
KRKS 192320Z 2000/2024 25011KT P6SM SCT050 BKN100
     FM200400 24007KT P6SM SCT045 OVC100
     FM201300 25013KT P6SM VCSH BKN040
     FM201900 26017G25KT P6SM SCT045 BKN090=



000
FTUS45 KRIW 192300
TAFBPI
TAF
KBPI 192320Z 2000/2024 29006KT P6SM SCT060 BKN110
     FM200400 VRB04KT P6SM SCT050 OVC100
     FM201800 VRB04KT P6SM VCSH OVC040=



000
FTUS45 KRIW 192300
TAFCPR
TAF
KCPR 192320Z 2000/2024 21013KT P6SM FEW120 BKN200
     FM201300 22020G28KT P6SM SCT110 SCT200
     FM201800 23026G34KT P6SM BKN100=



000
FTUS45 KRIW 192300
TAFCOD
TAF
KCOD 192320Z 2000/2024 24010KT P6SM SCT110 BKN200
     FM201200 VRB06KT P6SM BKN100
     FM201700 23012G18KT P6SM SCT050 BKN100
      AMD LTD TO CLD VIS AND WIND=



000
FTUS45 KRIW 192300
TAFRIW
TAF
KRIW 192320Z 2000/2024 VRB04KT 6SM BR FEW120 BKN200
     FM200300 VRB04KT 2SM BR BKN003
     FM200400 VRB04KT 1/4SM FZFG VV001
     FM201100 VRB03KT 1/2SM FG VV001
     FM201300 VRB04KT 4SM BR BKN001
     FM201500 21005KT P6SM VCFG SCT002 BKN110
     FM201800 24006KT P6SM SCT100 SCT200=



000
FTUS45 KRIW 192300
TAFJAC
TAF
KJAC 192320Z 2000/2024 21009KT P6SM -SN SCT020 BKN045
     FM200500 22008KT 5SM -SN SCT018 OVC025
     FM200800 20007KT 4SM -SN BKN016
     FM201400 VRB06KT P6SM VCSH SCT025 BKN045
     FM202100 21013KT 4SM -SN OVC025
      AMD LTD TO CLD VIS AND WIND=



000
FTUS45 KRIW 191800 AAA
TAFJAC
TAF AMD
KJAC 191828Z 1918/2018 21009KT P6SM -SN SCT020 BKN040
     FM192100 22011KT 6SM -SN BKN020
     FM200400 22007KT 5SM -SN SCT018 OVC035
     FM201400 VRB05KT P6SM VCSH SCT030 BKN050
      AMD LTD TO CLD VIS AND WIND=



000
FTUS45 KRIW 191700
TAFRIW
TAF
KRIW 191738Z 1918/2018 VRB04KT 5SM BR BKN002
     FM191900 VRB04KT 6SM BR FEW003 SCT200
     FM192200 30006KT P6SM SCT120 BKN200
     FM200200 29005KT 2SM BR BKN003
     FM200400 VRB04KT 1/2SM FG VV001=



000
FTUS45 KRIW 191700
TAFLND
TAF
KLND 191738Z 1918/2018 VRB04KT P6SM SCT120 SCT200
     FM200100 VRB04KT P6SM VCFG SCT110 BKN200
     FM200300 24006KT 5SM BR BKN002
     FM201400 VRB05KT P6SM VCFG SCT002 BKN110=



000
FTUS45 KRIW 191700
TAFCOD
TAF
KCOD 191738Z 1918/2018 22008KT P6SM SCT090
     FM200200 23009KT P6SM SCT100 BKN200
     FM201000 VRB06KT P6SM BKN100
      AMD LTD TO CLD VIS AND WIND=



000
FTUS45 KRIW 191700
TAFRKS
TAF
KRKS 191738Z 1918/2018 24014KT P6SM BKN045
     FM200300 23008KT P6SM SCT045 BKN110
     FM201300 25011KT P6SM VCSH BKN040=



000
FTUS45 KRIW 191700
TAFBPI
TAF
KBPI 191738Z 1918/2018 VRB04KT P6SM BKN040
     FM200100 29006KT P6SM SCT050 BKN110
     FM201100 VRB04KT P6SM VCSH OVC045=



000
FTUS45 KRIW 191700
TAFJAC
TAF
KJAC 191738Z 1918/2018 VRB04KT P6SM FEW025 BKN050
     FM192100 21011KT P6SM VCSH SCT025 OVC040
     FM200400 22007KT 6SM -SN OVC035
     FM201400 VRB05KT P6SM VCSH SCT030 BKN050
      AMD LTD TO CLD VIS AND WIND=



000
FTUS45 KRIW 191700
TAFWRL
TAF
KWRL 191738Z 1918/2018 14005KT P6SM SCT200
     FM200200 VRB04KT P6SM VCFG SCT110 BKN200
     FM201100 VRB03KT P6SM BKN110=



000
FTUS45 KRIW 191700
TAFCPR
TAF
KCPR 191738Z 1918/2018 22020G26KT P6SM SCT200
     FM200200 22015KT P6SM SCT120 BKN200
     FM201300 23022G30KT P6SM BKN110=



000
FTUS45 KRIW 191600 AAA
TAFRIW
TAF AMD
KRIW 191609Z 1916/2012 VRB04KT 1/2SM FG VV002
      TEMPO 1917/1919 1SM BR BKN002
     FM191900 VRB05KT 2SM BR BKN003
     FM192300 VRB04KT 4SM BR BKN004
     FM200300 VRB06KT 6SM BR SCT004
     FM201000 30005KT P6SM FEW005 SCT120=



000
FTUS45 KRIW 191600 AAA
TAFRIW
TAF AMD
KRIW 191609Z 1916/2012 VRB04KT 1/2SM FG VV002
      TEMPO 1917/1919 1SM BR BKN002
     FM191900 VRB05KT 2SM BR BKN003
     FM192300 VRB04KT 4SM BR BKN004
     FM200300 VRB06KT 6SM BR SCT004
     FM201000 30005KT P6SM FEW005 SCT120=



000
FTUS45 KRIW 191500 AAB
TAFLND
TAF AMD
KLND 191536Z 1916/2012 VRB03KT 5SM BR SKC
      TEMPO 1916/1918 3SM BR BKN002
     FM191800 VRB05KT P6SM FEW200
     FM192200 VRB06KT P6SM SCT120 SCT200
     FM200100 VRB04KT P6SM VCFG BKN200=



000
FTUS45 KRIW 191100 AAA
TAFLND
TAF AMD
KLND 191158Z 1912/2012 VRB04KT 3/4SM BR VV002
     FM191500 VRB04KT 2SM BR SCT003
      TEMPO 1915/1916 1SM BR BKN003
     FM191600 VRB06KT P6SM FEW005
     FM192200 VRB06KT P6SM SCT120 BKN250=



000
FTUS45 KRIW 191100
TAFRKS
TAF
KRKS 191122Z 1912/2012 24012KT P6SM VCFG SCT020 BKN040
      TEMPO 1912/1916 BKN020
     FM191800 23012G20KT P6SM SCT050
     FM200400 23008KT P6SM BKN025=



000
FTUS45 KRIW 191100
TAFWRL
TAF
KWRL 191122Z 1912/2012 VRB04KT P6SM VCFG SCT100
     FM191500 VRB04KT P6SM SCT090
     FM192000 VRB04KT P6SM SCT110 BKN250=



000
FTUS45 KRIW 191100
TAFJAC
TAF
KJAC 191122Z 1912/2012 VRB04KT 6SM -SN SCT025 BKN040
     FM191400 VRB05KT P6SM VCSH SCT025 BKN040
     FM191800 20011KT P6SM VCSH BKN040
     FM192200 20011KT 4SM -SN BKN035
      AMD LTD TO CLD VIS AND WIND=



000
FTUS45 KRIW 191100
TAFBPI
TAF
KBPI 191122Z 1912/2012 VRB04KT P6SM BKN050
     FM201000 VRB06KT P6SM VCSH BKN050=



000
FTUS45 KRIW 191100
TAFCOD
TAF
KCOD 191122Z 1912/2012 21011KT P6SM SCT070
     FM191500 VRB06KT P6SM SCT100 BKN250
     FM201000 23009KT P6SM BKN080
      AMD LTD TO CLD VIS AND WIND=



000
FTUS45 KRIW 191100
TAFCPR
TAF
KCPR 191122Z 1912/2012 22014KT P6SM SCT150
     FM191700 22020G30KT P6SM SCT150
     FM200900 22015KT P6SM BKN120=



000
FTUS45 KRIW 191100
TAFRIW
TAF
KRIW 191122Z 1912/2012 VRB06KT 1/4SM FG VV002
     FM191600 VRB06KT 5SM BR BKN004
     FM191800 VRB06KT P6SM SCT004
     FM200300 VRB06KT 5SM BR BKN004
     FM201000 30005KT P6SM FEW005 SCT120=



000
FTUS45 KRIW 191100
TAFLND
TAF
KLND 191122Z 1912/2012 VRB06KT 4SM BR SCT003
      TEMPO 1912/1914 1 1/2SM BR
     FM191600 VRB06KT P6SM FEW005
     FM192200 VRB06KT P6SM SCT120 BKN250=



000
FTUS45 KRIW 190500
TAFLND
TAF
KLND 190520Z 1906/2006 VRB06KT 4SM BR SCT003
     FM191600 VRB06KT P6SM FEW005=



000
FTUS45 KRIW 190500
TAFCOD
TAF
KCOD 190520Z 1906/2006 28006KT P6SM SCT090
     FM190700 23011KT P6SM FEW090
     FM191400 VRB06KT P6SM FEW100 SCT250
      AMD LTD TO CLD VIS AND WIND=



000
FTUS45 KRIW 190500
TAFRIW
TAF
KRIW 190520Z 1906/2006 VRB06KT 1/4SM FG OVC002
     FM191600 VRB06KT 5SM BR BKN004
     FM191800 VRB06KT P6SM SCT004
     FM200200 VRB06KT 5SM BR BKN004=



000
FTUS45 KRIW 190500
TAFJAC
TAF
KJAC 190520Z 1906/2006 VRB06KT P6SM VCSH BKN040
     FM190700 VRB04KT 4SM -SN SCT025 BKN040
     FM191400 VRB05KT P6SM VCSH SCT020 BKN035
     FM191800 20011KT P6SM BKN040 OVC150
     FM200500 20011KT 4SM -SN BKN040
      AMD LTD TO CLD VIS AND WIND=



000
FTUS45 KRIW 190500
TAFCPR
TAF
KCPR 190520Z 1906/2006 21011KT P6SM SCT200
     FM190700 22014KT P6SM SCT150
     FM191800 22018G28KT P6SM SCT150=



000
FTUS45 KRIW 190500
TAFWRL
TAF
KWRL 190520Z 1906/2006 VRB04KT P6SM BKN060
     FM190800 VRB04KT P6SM VCFG SCT100
     FM191500 VRB04KT P6SM SCT090=



000
FTUS45 KRIW 190500
TAFRKS
TAF
KRKS 190520Z 1906/2006 24006KT P6SM VCFG SCT025
     FM191400 23007KT P6SM SCT025=



000
FTUS45 KRIW 190500
TAFBPI
TAF
KBPI 190520Z 1906/2006 VRB05KT P6SM SKC
     FM190700 34004KT P6SM VCFG FEW035
     FM191500 VRB06KT P6SM FEW040 SCT150
     FM192200 VRB06KT P6SM BKN050=



000
FTUS45 KRIW 190400 AAA
TAFJAC
TAF AMD
KJAC 190405Z 1904/1924 VRB06KT 6SM -SN SCT025 BKN040
     FM191400 VRB05KT P6SM VCSH SCT020 BKN035
     FM191800 20011KT P6SM BKN040 OVC150
      AMD LTD TO CLD VIS AND WIND=



000
FTUS45 KRIW 190400 AAA
TAFJAC
TAF AMD
KJAC 190405Z 1904/1924 VRB06KT 6SM -SN SCT025 BKN040
     FM191400 VRB05KT P6SM VCSH SCT020 BKN035
     FM191800 20011KT P6SM BKN040 OVC150
      AMD LTD TO CLD VIS AND WIND=



000
FTUS45 KRIW 190300 AAA
TAFRIW
TAF AMD
KRIW 190322Z 1903/1924 VRB04KT 1/4SM FG OVC002
     FM190600 VRB03KT 3SM -SN BR BKN003
     FM190700 VRB03KT 5SM BR BKN004
     FM191600 VRB04KT P6SM SCT004=



000
FTUS45 KRIW 190100 AAB
TAFRIW
TAF AMD
KRIW 190104Z 1901/1924 VRB04KT 3SM -SN BR BKN003
      TEMPO 1901/1904 1/4SM FG OVC002
     FM190400 VRB03KT 3SM -SN BR BKN003
     FM190700 VRB03KT 5SM BR BKN004
     FM191600 VRB04KT P6SM SCT004=



000
FTUS45 KRIW 182300 AAA
TAFRIW
TAF AMD
KRIW 182343Z 1900/1924 VRB04KT 3SM -SN BR BKN003
      TEMPO 1900/1904 1/2SM FG OVC002
     FM190400 VRB03KT 3SM -SN BR BKN003
     FM190700 VRB03KT 5SM BR BKN004
     FM191600 VRB04KT P6SM SCT004=



000
FTUS45 KRIW 182300
TAFCPR
TAF
KCPR 182320Z 1900/1924 21011KT P6SM SCT200
     FM190600 22014KT P6SM SCT150=



000
FTUS45 KRIW 182300
TAFLND
TAF
KLND 182320Z 1900/1924 VRB04KT P6SM FEW200
     FM190300 VRB03KT 4SM BR SCT003
     FM191600 VRB04KT P6SM FEW005=



000
FTUS45 KRIW 182300
TAFRIW
TAF
KRIW 182320Z 1900/1924 VRB04KT 6SM -SN BR BKN003
     FM190300 VRB03KT 3SM -SN BR BKN003
     FM190700 VRB03KT 5SM BR BKN004
     FM191600 VRB04KT P6SM SCT004=



000
FTUS45 KRIW 182300
TAFWRL
TAF
KWRL 182320Z 1900/1924 VRB04KT P6SM SKC
     FM190100 VRB04KT P6SM BKN080
     FM190800 VRB04KT P6SM VCFG FEW100
     FM191500 VRB04KT P6SM FEW090=



000
FTUS45 KRIW 182300
TAFRKS
TAF
KRKS 182320Z 1900/1924 25010KT P6SM FEW045
     FM190600 24006KT P6SM VCFG SCT025
     FM191400 23007KT P6SM SCT025=



000
FTUS45 KRIW 182300
TAFJAC
TAF
KJAC 182320Z 1900/1924 VRB04KT 4SM -SN SCT025 BKN040
     FM191400 VRB05KT P6SM VCSH SCT020 BKN035
     FM191800 20011KT P6SM BKN040 OVC150
      AMD LTD TO CLD VIS AND WIND=



000
FTUS45 KRIW 182300
TAFCOD
TAF
KCOD 182320Z 1900/1924 28006KT P6SM SCT090
     FM190600 23011KT P6SM FEW090
     FM191400 VRB06KT P6SM FEW100 SCT250
      AMD LTD TO CLD VIS AND WIND=



000
FTUS45 KRIW 182300
TAFBPI
TAF
KBPI 182320Z 1900/1924 VRB05KT P6SM SKC
     FM190600 34004KT P6SM VCFG FEW035
     FM191500 VRB04KT P6SM FEW040 SCT150
     FM192200 VRB03KT P6SM BKN050=



000
FTUS45 KRIW 182100 AAB
TAFRIW
TAF AMD
KRIW 182128Z 1821/1918 VRB04KT P6SM BKN003
      TEMPO 1821/1823 3SM -SN BR BKN002
     FM190300 VRB03KT 2SM BR VV002
     FM191600 VRB04KT 3SM BR BKN004=



000
FTUS45 KRIW 182100 AAA
TAFJAC
TAF AMD
KJAC 182125Z 1821/1918 VRB04KT P6SM VCSH BKN025
     FM190300 VRB04KT 4SM -SN BKN025
     FM190900 VRB05KT P6SM VCSH SCT020 BKN035
      AMD LTD TO CLD VIS AND WIND=



000
FTUS45 KRIW 181900 AAA
TAFRIW
TAF AMD
KRIW 181939Z 1820/1918 VRB04KT 3SM -SN BR BKN003
      TEMPO 1820/1822 1/2SM -SN FZFG BKN002
     FM190300 VRB03KT 1/4SM FZFG VV002
     FM191600 VRB04KT 1SM BR BKN004=



000
FTUS45 KRIW 181900 AAB
TAFLND
TAF AMD
KLND 181930Z 1820/1918 VRB04KT P6SM FEW005 FEW200
     FM190400 VRB03KT 4SM BR SCT003=



000
FTUS45 KRIW 181800 AAA
TAFLND
TAF AMD
KLND 181844Z 1819/1918 VRB03KT 6SM BR FEW002
      TEMPO 1819/1820 1SM BR VV002
     FM182300 VRB04KT P6SM FEW005 FEW200
     FM190400 VRB03KT 4SM BR SCT003=



000
FTUS45 KRIW 181800 AAA
TAFRIW
TAF AMD
KRIW 181843Z 1819/1918 VRB04KT 1SM BR BKN003
      TEMPO 1819/1822 1/4SM FZFG BKN002
     FM190300 VRB03KT 1/4SM FZFG VV002
     FM191600 VRB04KT 1SM BR BKN004=



000
FTUS45 KRIW 181700
TAFLND
TAF
KLND 181720Z 1818/1918 VRB03KT 6SM BR FEW200
      TEMPO 1818/1820 1/2SM FZFG VV002
     FM182300 VRB04KT P6SM FEW005 FEW200
     FM190400 VRB03KT 4SM BR SCT003=



000
FTUS45 KRIW 181700
TAFCOD
TAF
KCOD 181720Z 1818/1918 22007KT P6SM FEW250
     FM182300 21005KT P6SM BKN090
     FM190600 23011KT P6SM SKC
      AMD LTD TO CLD VIS AND WIND=



000
FTUS45 KRIW 181700
TAFJAC
TAF
KJAC 181720Z 1818/1918 VRB04KT P6SM VCSH SCT025 BKN050
     FM190300 VRB04KT 4SM -SN BKN025
     FM190900 VRB05KT P6SM VCSH SCT020 BKN035
      AMD LTD TO CLD VIS AND WIND=



000
FTUS45 KRIW 181700
TAFRKS
TAF
KRKS 181720Z 1818/1918 25010KT P6SM SCT045
     FM190600 24006KT P6SM VCFG SCT025=



000
FTUS45 KRIW 181700
TAFCPR
TAF
KCPR 181720Z 1818/1918 22014KT P6SM SCT200
     FM182200 21011KT P6SM SCT200
     FM190600 22014KT P6SM SCT150=



000
FTUS45 KRIW 181700
TAFRIW
TAF
KRIW 181720Z 1818/1918 VRB04KT 1SM BR BKN003
      TEMPO 1818/1822 1/2SM FZFG BKN002
     FM190300 VRB03KT 1/4SM FZFG VV002
     FM191600 VRB04KT 1SM BR BKN004=



000
FTUS45 KRIW 181700
TAFWRL
TAF
KWRL 181720Z 1818/1918 VRB04KT P6SM SKC
     FM190100 VRB04KT P6SM BKN080
     FM190800 VRB04KT P6SM VCFG FEW100
     FM191500 VRB04KT P6SM FEW090=



000
FTUS45 KRIW 181700
TAFBPI
TAF
KBPI 181720Z 1818/1918 VRB05KT P6SM SKC
     FM190600 34004KT P6SM VCFG FEW035
     FM191500 VRB04KT P6SM FEW040 SCT150=



    US Dept of Commerce
    National Oceanic and Atmospheric Administration
    National Weather Service
    1325 East West Highway
    Silver Spring, MD 20910
    Page Author: NWS Internet Services Team
Disclaimer
Information Quality
Credits
Glossary
Privacy Policy
Freedom of Information Act (FOIA)
About Us
Career Opportunities